Latest Weather Observations for Nullarbor

IDS60801

Issued at 4:51 am CDT Tuesday 13 November 2018 (issued every 10 minutes, with the page automatically refreshed every 10 minutes)

About weather observations | Map of weather stations | Latest weather observations for SA | Other Formats
Station Details ID: 018106 Name: NULLARBOR Lat: -31.45 Lon: 130.90 Height: 64.0 m
Data from the previous 72 hours. | See also: Recent months at Nullarbor
Date/Time
CDT
Temp
°C
App
Temp
°C
Dew
Point
°C
Rel
Hum
%
Delta-T
°C
Wind Press
QNH
hPa
Press
MSL
hPa
Rain since
9am
mm
Dir  Spd
km/h
Gust
km/h
Spd
kts
Gust
kts
13/04:30am 15.7 15.1 15.7 100 0.0 WSW 13 17 7 9 1014.0 1013.8 12.8
13/04:00am 15.7 16.3 15.7 100 0.0 SW 7 9 4 5 1013.8 1013.6 12.8
13/03:30am 15.8 16.0 15.8 100 0.0 SW 9 11 5 6 1013.9 1013.7 12.8
13/03:00am 15.7 15.9 15.7 100 0.0 SW 9 11 5 6 1014.0 1013.8 12.8
13/02:30am 15.7 15.9 15.7 100 0.0 SW 9 13 5 7 1014.2 1014.0 12.8
13/02:00am 15.6 15.4 15.6 100 0.0 SW 11 15 6 8 1014.2 1014.0 12.8
13/01:48am 15.6 14.6 15.6 100 0.0 SSW 15 22 8 12 1014.1 1013.9 12.8
13/01:34am 15.6 14.2 15.6 100 0.0 SSW 17 22 9 12 1014.2 1014.0 12.8
13/01:30am 15.6 14.2 15.6 100 0.0 SSW 17 22 9 12 1014.1 1013.9 12.8
13/01:00am 15.7 14.7 15.7 100 0.0 SSW 15 20 8 11 1014.2 1014.0 12.8
13/12:58am 15.7 15.1 15.7 100 0.0 SSW 13 20 7 11 1014.2 1014.0 12.8
13/12:30am 15.9 16.5 15.9 100 0.0 SSW 7 9 4 5 1014.4 1014.2 12.8
13/12:00am 15.8 14.1 15.8 100 0.0 SSW 19 24 10 13 1013.9 1013.7 12.8
 
Date/Time
CDT
Temp
°C
App
Temp
°C
Dew
Point
°C
Rel
Hum
%
Delta-T
°C
Wind Press
QNH
hPa
Press
MSL
hPa
Rain since
9am
mm
Dir  Spd
km/h
Gust
km/h
Spd
kts
Gust
kts
12/11:30pm 15.8 14.1 15.8 100 0.0 SSW 19 26 10 14 1013.2 1013.0 12.8
12/11:00pm 15.9 12.9 15.9 100 0.0 SSW 26 32 14 17 1013.1 1012.9 12.8
12/10:44pm 15.9 14.3 15.9 100 0.0 SSW 19 26 10 14 1013.5 1013.3 12.4
12/10:30pm 16.0 14.8 16.0 100 0.0 SSW 17 26 9 14 1013.3 1013.1 12.2
12/10:00pm 16.4 14.0 16.4 100 0.0 SSW 24 32 13 17 1013.0 1012.8 3.0
12/09:30pm 16.7 14.8 16.7 100 0.0 SSW 22 32 12 17 1012.7 1012.5 1.0
12/09:27pm 16.8 14.9 16.8 100 0.0 SSW 22 32 12 17 1012.7 1012.5 0.6
12/09:00pm 17.1 13.8 17.1 100 0.0 SW 30 39 16 21 1012.4 1012.2 0.4
12/08:35pm 16.9 13.9 16.9 100 0.0 S 28 35 15 19 1010.6 1010.4 0.4
12/08:30pm 16.9 13.6 16.9 100 0.0 SSW 30 37 16 20 1010.8 1010.6 0.4
12/08:09pm 17.3 14.1 17.3 100 0.0 SSW 30 39 16 21 1010.6 1010.4 0.4
12/08:00pm 17.5 14.8 17.5 100 0.0 SSW 28 35 15 19 1010.5 1010.3 0.4
12/07:30pm 17.6 15.3 17.6 100 0.0 SSW 26 33 14 18 1010.1 1009.9 0.4
12/07:00pm 17.8 15.6 17.8 100 0.0 SSW 26 33 14 18 1010.6 1010.4 0.4
12/06:57pm 17.7 15.4 17.7 100 0.0 SSW 26 33 14 18 1010.4 1010.2 0.4
12/06:30pm 17.9 15.3 17.7 99 0.1 S 28 37 15 20 1009.7 1009.5 0.2
12/06:00pm 19.5 18.1 16.9 85 1.6 S 20 28 11 15 1010.0 1009.8 0.0
12/05:30pm 20.1 15.7 16.7 81 2.1 S 35 44 19 24 1009.1 1008.9 0.0
12/05:00pm 20.3 16.5 17.1 82 2.0 S 33 44 18 24 1009.2 1009.0 0.0
12/04:30pm 20.5 16.5 16.7 79 2.3 SSW 33 43 18 23 1009.9 1009.7 0.0
12/04:00pm 21.8 17.5 17.0 74 2.9 SSW 35 46 19 25 1009.7 1009.5 0.0
12/03:30pm 22.7 18.1 17.2 71 3.4 SSW 37 48 20 26 1010.0 1009.8 0.0
12/03:00pm 23.1 19.5 17.3 70 3.6 SSW 32 41 17 22 1010.2 1010.0 0.0
12/02:30pm 23.5 20.4 17.5 69 3.7 S 30 37 16 20 1009.4 1009.2 0.0
12/02:00pm 22.9 20.3 17.8 73 3.2 S 28 35 15 19 1009.7 1009.5 0.0
12/01:30pm 22.0 20.6 18.0 78 2.5 S 22 30 12 16 1010.0 1009.8 0.0
12/01:00pm 21.6 20.7 18.2 81 2.1 SSE 20 24 11 13 1010.1 1009.9 0.0
12/12:30pm 19.8 18.4 17.9 89 1.2 SSE 22 28 12 15 1010.4 1010.2 0.0
12/12:00pm 19.9 17.4 18.0 89 1.2 SSE 28 32 15 17 1009.4 1009.2 0.0
12/11:30am 20.0 17.7 17.6 86 1.5 S 26 33 14 18 1010.6 1010.4 0.0
12/11:00am 20.4 18.9 17.8 85 1.6 S 22 28 12 15 1010.9 1010.7 0.0
12/10:30am 20.3 19.0 18.1 87 1.4 S 22 28 12 15 1010.5 1010.3 0.0
12/10:00am 19.4 18.2 18.4 94 0.6 S 22 30 12 16 1010.7 1010.5 0.0
12/09:30am 19.1 18.5 18.4 96 0.4 SE 19 24 10 13 1010.4 1010.2 0.0
12/09:00am 18.8 19.4 18.6 99 0.1 SE 13 17 7 9 1010.4 1010.2 0.6
12/08:30am 18.5 19.0 18.3 99 0.1 ESE 13 19 7 10 1010.1 1009.9 0.6
12/08:00am 18.6 19.5 18.4 99 0.1 S 11 15 6 8 1010.7 1010.5 0.6
12/07:30am 18.5 17.8 18.3 99 0.1 SSW 19 24 10 13 1010.5 1010.3 0.6
12/07:00am 19.3 18.4 18.1 93 0.7 SW 20 28 11 15 1010.3 1010.1 0.6
12/06:30am 19.0 20.7 15.3 79 2.2 CALM 0 2 0 1 1010.6 1010.4 0.6
12/06:00am 18.9 19.0 15.4 80 2.1 NW 9 11 5 6 1010.7 1010.5 0.6
12/05:30am 19.9 19.7 14.7 72 3.0 WNW 9 15 5 8 1009.9 1009.7 0.6
12/05:00am 19.2 18.8 15.3 78 2.3 N 11 13 6 7 1009.6 1009.4 0.6
12/04:30am 18.9 20.3 15.4 80 2.1 NW 2 6 1 3 1009.1 1008.9 0.6
12/04:00am 19.8 19.9 14.4 71 3.1 WNW 7 9 4 5 1008.7 1008.5 0.6
12/03:30am 19.4 18.7 14.4 73 2.9 N 11 13 6 7 1008.9 1008.7 0.6
12/03:00am 19.6 18.0 14.0 70 3.2 N 15 17 8 9 1009.2 1009.0 0.6
12/02:30am 19.3 17.4 14.1 72 3.0 NNE 17 19 9 10 1009.2 1009.0 0.6
12/02:00am 18.6 17.1 14.1 75 2.6 N 15 17 8 9 1009.8 1009.6 0.6
12/01:30am 19.3 17.8 14.1 72 3.0 NNE 15 17 8 9 1009.9 1009.7 0.6
12/01:00am 19.9 18.6 14.7 72 3.0 NNE 15 19 8 10 1010.0 1009.8 0.6
12/12:30am 20.0 18.5 15.2 74 2.8 NNE 17 19 9 10 1010.4 1010.2 0.6
12/12:00am 21.0 19.6 15.5 71 3.3 N 17 19 9 10 1010.8 1010.6 0.6
 
Date/Time
CDT
Temp
°C
App
Temp
°C
Dew
Point
°C
Rel
Hum
%
Delta-T
°C
Wind Press
QNH
hPa
Press
MSL
hPa
Rain since
9am
mm
Dir  Spd
km/h
Gust
km/h
Spd
kts
Gust
kts
11/11:30pm 21.7 19.9 16.0 70 3.4 NNE 20 24 11 13 1010.8 1010.6 0.6
11/11:00pm 22.1 20.7 16.6 71 3.4 NNE 19 22 10 12 1010.9 1010.7 0.6
11/10:30pm 22.3 21.0 16.8 71 3.4 NNE 19 20 10 11 1011.2 1011.0 0.6
11/10:00pm 23.1 21.5 16.6 67 4.0 NNE 20 24 11 13 1011.0 1010.8 0.6
11/09:30pm 23.2 22.4 17.2 69 3.7 NNE 17 20 9 11 1011.1 1010.9 0.6
11/09:00pm 23.1 22.9 17.6 71 3.4 N 15 17 8 9 1011.1 1010.9 0.6
11/08:30pm 23.4 23.3 17.8 71 3.5 N 15 19 8 10 1011.2 1011.0 0.6
11/08:00pm 24.1 23.2 18.1 69 3.8 N 20 26 11 14 1011.0 1010.8 0.6
11/07:30pm 24.2 23.0 18.4 70 3.7 N 22 30 12 16 1010.8 1010.6 0.6
11/07:00pm 23.8 23.2 18.9 74 3.1 N 20 26 11 14 1010.6 1010.4 0.6
11/06:30pm 22.9 21.9 18.9 78 2.5 NNW 22 28 12 15 1010.3 1010.1 0.6
11/06:00pm 22.2 20.9 19.9 87 1.5 N 26 39 14 21 1010.3 1010.1 0.6
11/05:30pm 21.6 21.5 19.9 90 1.1 NNW 20 28 11 15 1010.6 1010.4 0.4
11/05:06pm 23.5 20.8 17.5 69 3.7 NW 28 46 15 25 1010.7 1010.5 0.0
11/05:00pm 23.6 20.0 17.1 67 4.0 NNW 32 43 17 23 1010.8 1010.6 0.0
11/04:33pm 24.5 19.2 16.2 60 5.1 NNW 39 50 21 27 1010.6 1010.4 0.0
11/04:30pm 24.2 19.6 17.0 64 4.5 NNW 37 48 20 26 1010.7 1010.5 0.0
11/04:17pm 22.7 16.7 17.8 74 3.1 NNW 46 67 25 36 1011.0 1010.8 0.0
11/04:10pm 27.5 21.7 13.8 43 8.2 NNW 37 63 20 34 1010.5 1010.3 0.0
11/04:00pm 28.6 22.1 8.8 29 10.9 NNW 33 46 18 25 1010.2 1010.0 0.0
11/03:30pm 29.6 22.6 6.9 24 12.2 N 33 43 18 23 1010.0 1009.8 0.0
11/03:00pm 30.1 22.6 4.7 20 13.2 NNW 33 48 18 26 1010.2 1010.0 0.0
11/02:30pm 30.6 22.6 3.6 18 13.8 N 35 46 19 25 1010.5 1010.3 0.0
11/02:00pm 30.7 20.6 0.2 14 14.7 N 43 54 23 29 1010.8 1010.6 0.0
11/01:41pm 30.7 20.4 -0.8 13 14.9 N 43 61 23 33 1011.0 1010.8 0.0
11/01:30pm 30.6 20.5 0.1 14 14.7 N 43 54 23 29 1011.0 1010.8 0.0
11/01:17pm 31.4 20.7 -2.6 11 15.7 N 44 63 24 34 1011.1 1010.9 0.0
11/01:00pm 30.6 19.8 -3.2 11 15.4 N 44 59 24 32 1011.3 1011.1 0.0
11/12:30pm 30.3 20.2 -2.2 12 15.0 N 41 50 22 27 1011.7 1011.5 0.0
11/12:00pm 29.3 19.1 -3.0 12 14.6 N 41 61 22 33 1012.1 1011.9 0.0
11/11:59am 29.2 19.4 -3.1 12 14.6 N 39 61 21 33 1012.1 1011.9 0.0
11/11:30am 27.8 18.1 -2.1 14 13.6 N 39 52 21 28 1012.8 1012.6 0.0
11/11:00am 27.0 18.4 -0.1 17 12.7 N 35 48 19 26 1012.8 1012.6 0.0
11/10:30am 26.8 19.2 0.5 18 12.4 N 30 39 16 21 1012.9 1012.7 0.0
11/10:00am 25.5 18.9 2.2 22 11.2 N 26 37 14 20 1013.2 1013.0 0.0
11/09:30am 24.0 17.9 2.8 25 10.2 N 24 32 13 17 1013.2 1013.0 0.0
11/09:00am 22.7 16.3 3.3 28 9.4 NNE 26 35 14 19 1013.0 1012.8 0.0
11/08:30am 20.6 14.7 3.8 33 8.1 NNE 24 30 13 16 1013.0 1012.8 0.0
11/08:00am 19.5 13.6 4.0 36 7.4 NNE 24 30 13 16 1013.0 1012.8 0.0
11/07:30am 19.0 13.0 3.6 36 7.3 NE 24 30 13 16 1012.9 1012.7 0.0
11/07:00am 18.7 12.7 3.3 36 7.2 NE 24 30 13 16 1012.8 1012.6 0.0
11/06:30am 18.6 12.6 3.6 37 7.1 NE 24 33 13 18 1012.7 1012.5 0.0
11/06:00am 18.6 12.6 3.6 37 7.1 NE 24 32 13 17 1012.5 1012.3 0.0
11/05:30am 18.5 12.6 3.9 38 6.9 NE 24 30 13 16 1012.6 1012.4 0.0
11/05:00am 17.6 13.6 4.9 43 6.1 NNE 15 22 8 12 1012.6 1012.4 0.0
11/04:30am 17.3 12.5 4.6 43 6.0 ENE 19 22 10 12 1012.5 1012.3 0.0
11/04:00am 16.8 12.0 4.8 45 5.7 ENE 19 24 10 13 1012.5 1012.3 0.0
11/03:30am 17.6 12.9 5.2 44 6.0 ENE 19 22 10 12 1012.6 1012.4 0.0
11/03:00am 16.8 12.7 6.0 49 5.3 E 17 20 9 11 1012.8 1012.6 0.0
11/02:30am 16.2 12.3 6.9 54 4.6 E 17 20 9 11 1013.3 1013.1 0.0
11/02:00am 15.5 12.2 9.4 67 3.2 E 17 19 9 10 1013.8 1013.6 0.0
11/01:30am 16.4 13.4 9.3 63 3.7 E 15 17 8 9 1013.9 1013.7 0.0
11/01:00am 17.2 13.9 9.4 60 4.1 E 17 19 9 10 1014.1 1013.9 0.0
11/12:30am 17.9 14.5 9.3 57 4.5 E 17 20 9 11 1014.2 1014.0 0.0
11/12:00am 18.5 15.2 9.6 56 4.7 E 17 28 9 15 1014.6 1014.4 0.0
 
Date/Time
CDT
Temp
°C
App
Temp
°C
Dew
Point
°C
Rel
Hum
%
Delta-T
°C
Wind Press
QNH
hPa
Press
MSL
hPa
Rain since
9am
mm
Dir  Spd
km/h
Gust
km/h
Spd
kts
Gust
kts
10/11:30pm 19.1 15.4 9.6 54 5.0 E 19 22 10 12 1015.0 1014.8 0.0
10/11:00pm 19.7 15.8 9.6 52 5.4 ESE 20 26 11 14 1015.2 1015.0 0.0
10/10:30pm 19.8 16.0 11.0 57 4.8 ESE 22 30 12 16 1015.1 1014.9 0.0
10/10:00pm 20.1 16.0 11.3 57 4.9 ESE 24 32 13 17 1014.6 1014.4 0.0
10/09:30pm 19.9 15.9 11.7 59 4.5 ESE 24 32 13 17 1014.6 1014.4 0.0
10/09:00pm 19.5 15.6 12.0 62 4.2 ESE 24 30 13 16 1014.4 1014.2 0.0
10/08:30pm 20.1 15.7 11.6 58 4.7 ESE 26 33 14 18 1014.4 1014.2 0.0
10/08:00pm 21.0 15.5 10.5 51 5.7 ESE 30 39 16 21 1014.1 1013.9 0.0
10/07:30pm 21.6 16.4 10.4 49 6.1 ESE 28 37 15 20 1014.0 1013.8 0.0
10/07:00pm 22.4 17.3 10.5 47 6.5 ESE 28 37 15 20 1013.8 1013.6 0.0
10/06:30pm 23.1 17.1 10.2 44 7.1 ESE 32 41 17 22 1013.8 1013.6 0.0
10/06:00pm 23.9 17.6 9.1 39 8.0 ESE 32 41 17 22 1013.9 1013.7 0.0
10/05:30pm 24.6 18.7 9.0 37 8.5 ESE 30 39 16 21 1014.0 1013.8 0.0
10/05:00pm 25.7 19.7 8.7 34 9.2 ESE 30 35 16 19 1014.0 1013.8 0.0
10/04:30pm 26.8 21.1 8.3 31 10.0 ESE 28 37 15 20 1014.2 1014.0 0.0
10/04:00pm 28.8 22.4 6.8 25 11.7 ESE 30 35 16 19 1014.2 1014.0 0.0
10/03:30pm 31.1 25.4 4.8 19 13.8 ESE 24 37 13 20 1014.2 1014.0 0.0
10/03:00pm 31.1 28.0 1.4 15 14.7 WNW 7 13 4 7 1014.8 1014.6 0.0
10/02:30pm 31.0 26.7 -1.7 12 15.3 NE 11 22 6 12 1015.2 1015.0 0.0
10/02:00pm 30.5 26.0 0.0 14 14.7 NE 13 22 7 12 1015.5 1015.3 0.0
10/01:30pm 30.2 26.2 0.7 15 14.3 NNW 11 20 6 11 1015.9 1015.7 0.0
10/01:00pm 30.1 25.1 1.5 16 14.1 N 17 33 9 18 1016.2 1016.0 0.0
10/12:30pm 30.3 24.8 1.7 16 14.1 NNE 20 28 11 15 1016.5 1016.3 0.0
10/12:00pm 29.6 24.4 3.6 19 13.2 NNE 20 30 11 16 1016.8 1016.6 0.0
10/11:30am 29.0 23.0 3.1 19 13.0 NNE 24 35 13 19 1017.0 1016.8 0.0
10/11:00am 27.6 21.2 3.3 21 12.1 NNE 26 35 14 19 1017.3 1017.1 0.0
10/10:30am 26.0 19.2 3.3 23 11.2 NE 28 35 15 19 1017.7 1017.6 0.0
10/10:00am 24.8 17.8 4.0 26 10.3 NNE 30 39 16 21 1017.9 1017.8 0.0
10/09:30am 22.6 15.3 4.6 31 8.9 NNE 32 39 17 21 1018.0 1017.9 0.0
10/09:00am 21.0 14.9 5.0 35 7.9 NNE 26 33 14 18 1018.0 1017.9 0.0
10/08:30am 19.1 14.6 6.9 45 6.1 NE 20 28 11 15 1017.9 1017.8 0.0
10/08:00am 16.1 12.2 7.1 55 4.5 NE 17 22 9 12 1017.7 1017.6 0.0
10/07:30am 13.5 9.7 7.5 67 2.9 NE 17 20 9 11 1017.6 1017.5 0.0
10/07:00am 10.6 6.7 7.3 80 1.6 NNE 17 19 9 10 1017.2 1017.0 0.0
10/06:30am 10.9 7.1 7.4 79 1.7 NE 17 20 9 11 1017.0 1016.8 0.0
10/06:00am 10.7 6.6 7.8 82 1.4 NE 19 20 10 11 1016.7 1016.5 0.0
10/05:30am 10.2 6.8 7.8 85 1.2 NE 15 19 8 10 1016.6 1016.4 0.0
10/05:00am 9.7 6.7 7.5 86 1.1 NNE 13 15 7 8 1016.7 1016.5 0.0

Other Formats:

Comma delimited format used in spreadsheet applications
http://www.bom.gov.au/fwo/IDS60801/IDS60801.94651.axf

JavaScript Object Notation format (JSON) in row-major order
http://www.bom.gov.au/fwo/IDS60801/IDS60801.94651.json